Time,TemperatureF,DewpointF,PressureIn,WindDirection,WindDirectionDegrees,WindSpeedMPH,WindSpeedGustMPH,Humidity,HourlyPrecipIn,Conditions,Clouds,dailyrainin,SoftwareType,DateUTC
2013-11-18 00:01:00,49.6,41.0,29.81,West,260,3.0,6.0,72,0.00,,,0.00,weatherlink.com 1.10,2013-11-18 05:01:00,
2013-11-18 00:16:00,50.0,41.0,29.82,SSE,156,6.0,13.0,72,0.00,,,0.00,weatherlink.com 1.10,2013-11-18 05:16:00,
2013-11-18 00:31:00,49.9,42.0,29.83,NW,308,3.0,11.0,73,0.00,,,0.00,weatherlink.com 1.10,2013-11-18 05:31:00,
2013-11-18 00:46:00,49.5,41.0,29.83,NW,310,3.0,7.0,73,0.00,,,0.00,weatherlink.com 1.10,2013-11-18 05:46:00,
2013-11-18 01:01:00,49.0,41.0,29.84,WNW,282,0.0,8.0,75,0.00,,,0.00,weatherlink.com 1.10,2013-11-18 06:01:00,
2013-11-18 01:16:00,48.5,42.0,29.84,West,275,1.0,9.0,77,0.00,,,0.00,weatherlink.com 1.10,2013-11-18 06:16:00,
2013-11-18 01:31:00,48.1,41.0,29.85,West,280,2.0,12.0,77,0.00,,,0.00,weatherlink.com 1.10,2013-11-18 06:31:00,
2013-11-18 01:46:00,47.8,42.0,29.85,NW,322,2.0,11.0,79,0.00,,,0.00,weatherlink.com 1.10,2013-11-18 06:46:00,
2013-11-18 02:01:00,47.4,41.0,29.86,WNW,282,1.0,6.0,79,0.00,,,0.00,weatherlink.com 1.10,2013-11-18 07:01:00,
2013-11-18 02:16:00,46.9,41.0,29.87,West,267,2.0,8.0,81,0.00,,,0.00,weatherlink.com 1.10,2013-11-18 07:16:00,
2013-11-18 02:31:00,46.5,41.0,29.87,WNW,296,2.0,7.0,81,0.00,,,0.00,weatherlink.com 1.10,2013-11-18 07:31:00,
2013-11-18 02:47:00,46.1,41.0,29.89,West,260,0.0,7.0,82,0.00,,,0.00,weatherlink.com 1.10,2013-11-18 07:47:00,
2013-11-18 03:02:00,45.5,41.0,29.90,WNW,294,2.0,5.0,84,0.00,,,0.00,weatherlink.com 1.10,2013-11-18 08:02:00,
2013-11-18 03:17:00,45.3,40.0,29.90,NNW,330,1.0,5.0,83,0.00,,,0.00,weatherlink.com 1.10,2013-11-18 08:17:00,
2013-11-18 03:32:00,45.0,41.0,29.91,West,277,3.0,6.0,84,0.00,,,0.00,weatherlink.com 1.10,2013-11-18 08:32:00,
2013-11-18 03:47:00,44.6,40.0,29.92,South,178,0.0,7.0,85,0.00,,,0.00,weatherlink.com 1.10,2013-11-18 08:47:00,
2013-11-18 04:02:00,44.2,40.0,29.92,WNW,298,2.0,7.0,84,0.00,,,0.00,weatherlink.com 1.10,2013-11-18 09:02:00,
2013-11-18 04:17:00,43.8,39.0,29.92,WNW,296,1.0,5.0,84,0.00,,,0.00,weatherlink.com 1.10,2013-11-18 09:17:00,
2013-11-18 04:32:00,43.4,39.0,29.92,WNW,303,3.0,8.0,84,0.00,,,0.00,weatherlink.com 1.10,2013-11-18 09:32:00,
2013-11-18 04:47:00,43.1,39.0,29.92,West,270,0.0,5.0,84,0.00,,,0.00,weatherlink.com 1.10,2013-11-18 09:47:00,
2013-11-18 05:02:00,42.6,38.0,29.93,West,270,2.0,5.0,84,0.00,,,0.00,weatherlink.com 1.10,2013-11-18 10:02:00,
2013-11-18 05:17:00,42.2,38.0,29.94,WSW,246,0.0,3.0,84,0.00,,,0.00,weatherlink.com 1.10,2013-11-18 10:17:00,
2013-11-18 05:32:00,42.1,38.0,29.94,WNW,296,0.0,5.0,84,0.00,,,0.00,weatherlink.com 1.10,2013-11-18 10:32:00,
2013-11-18 05:47:00,41.5,37.0,29.94,WNW,303,0.0,2.0,85,0.00,,,0.00,weatherlink.com 1.10,2013-11-18 10:47:00,
2013-11-18 06:02:00,41.0,37.0,29.93,West,263,0.0,2.0,86,0.00,,,0.00,weatherlink.com 1.10,2013-11-18 11:02:00,
2013-11-18 06:17:00,40.6,37.0,29.93,West,268,0.0,4.0,87,0.00,,,0.00,weatherlink.com 1.10,2013-11-18 11:17:00,
2013-11-18 06:32:00,40.9,37.0,29.93,WSW,240,0.0,5.0,86,0.00,,,0.00,weatherlink.com 1.10,2013-11-18 11:32:00,
2013-11-18 06:47:00,40.7,37.0,29.94,West,272,4.0,4.0,87,0.00,,,0.00,weatherlink.com 1.10,2013-11-18 11:47:00,
2013-11-18 07:02:00,40.4,37.0,29.95,SW,226,0.0,3.0,88,0.00,,,0.00,weatherlink.com 1.10,2013-11-18 12:02:00,
2013-11-18 07:17:00,39.9,37.0,29.95,SSW,211,0.0,3.0,89,0.00,,,0.00,weatherlink.com 1.10,2013-11-18 12:17:00,
2013-11-18 07:33:00,40.1,37.0,29.95,WNW,285,1.0,5.0,89,0.00,,,0.00,weatherlink.com 1.10,2013-11-18 12:33:00,
2013-11-18 07:47:00,40.2,37.0,29.96,West,280,0.0,4.0,89,0.00,,,0.00,weatherlink.com 1.10,2013-11-18 12:47:00,
2013-11-18 08:02:00,40.7,38.0,29.96,West,271,4.0,5.0,88,0.00,,,0.00,weatherlink.com 1.10,2013-11-18 13:02:00,
2013-11-18 08:17:00,41.1,38.0,29.97,West,275,1.0,4.0,88,0.00,,,0.00,weatherlink.com 1.10,2013-11-18 13:17:00,
2013-11-18 08:33:00,42.3,38.0,29.98,NW,323,4.0,5.0,86,0.00,,,0.00,weatherlink.com 1.10,2013-11-18 13:33:00,
2013-11-18 08:48:00,43.6,39.0,29.98,West,278,4.0,12.0,83,0.00,,,0.00,weatherlink.com 1.10,2013-11-18 13:48:00,
2013-11-18 09:03:00,44.6,39.0,29.99,WNW,287,3.0,9.0,80,0.00,,,0.00,weatherlink.com 1.10,2013-11-18 14:03:00,
2013-11-18 09:18:00,45.2,39.0,29.99,NW,305,6.0,9.0,78,0.00,,,0.00,weatherlink.com 1.10,2013-11-18 14:18:00,
2013-11-18 09:33:00,46.0,39.0,29.99,West,279,4.0,8.0,76,0.00,,,0.00,weatherlink.com 1.10,2013-11-18 14:33:00,
2013-11-18 09:48:00,46.8,38.0,30.00,WNW,294,7.0,12.0,71,0.00,,,0.00,weatherlink.com 1.10,2013-11-18 14:48:00,
2013-11-18 10:03:00,47.2,37.0,30.00,West,271,8.0,13.0,69,0.00,,,0.00,weatherlink.com 1.10,2013-11-18 15:03:00,
2013-11-18 10:18:00,47.3,37.0,30.00,WNW,282,5.0,14.0,67,0.00,,,0.00,weatherlink.com 1.10,2013-11-18 15:18:00,
2013-11-18 10:33:00,47.7,37.0,30.01,NW,309,10.0,14.0,66,0.00,,,0.00,weatherlink.com 1.10,2013-11-18 15:33:00,
2013-11-18 10:48:00,47.6,36.0,30.02,SW,218,5.0,19.0,64,0.00,,,0.00,weatherlink.com 1.10,2013-11-18 15:48:00,
2013-11-18 11:03:00,47.9,37.0,30.02,SW,228,2.0,15.0,66,0.00,,,0.00,weatherlink.com 1.10,2013-11-18 16:03:00,
2013-11-18 11:18:00,47.9,37.0,30.03,NW,304,1.0,16.0,65,0.00,,,0.00,weatherlink.com 1.10,2013-11-18 16:18:00,
2013-11-18 11:33:00,48.2,36.0,30.03,West,263,9.0,16.0,64,0.00,,,0.00,weatherlink.com 1.10,2013-11-18 16:33:00,
2013-11-18 11:48:00,48.7,36.0,30.03,NW,320,3.0,16.0,62,0.00,,,0.00,weatherlink.com 1.10,2013-11-18 16:48:00,
2013-11-18 12:03:00,48.7,36.0,30.03,NW,314,10.0,19.0,63,0.00,,,0.00,weatherlink.com 1.10,2013-11-18 17:03:00,
2013-11-18 12:18:00,48.9,36.0,30.03,WNW,296,11.0,17.0,61,0.00,,,0.00,weatherlink.com 1.10,2013-11-18 17:18:00,
2013-11-18 12:33:00,49.4,36.0,30.03,NW,311,8.0,13.0,61,0.00,,,0.00,weatherlink.com 1.10,2013-11-18 17:33:00,
2013-11-18 12:48:00,49.8,36.0,30.03,NW,315,11.0,16.0,60,0.00,,,0.00,weatherlink.com 1.10,2013-11-18 17:48:00,
2013-11-18 13:03:00,50.0,36.0,30.02,NNW,330,6.0,17.0,59,0.00,,,0.00,weatherlink.com 1.10,2013-11-18 18:03:00,
2013-11-18 13:18:00,50.6,35.0,30.02,WNW,282,4.0,16.0,56,0.00,,,0.00,weatherlink.com 1.10,2013-11-18 18:18:00,
2013-11-18 13:33:00,51.3,37.0,30.03,North,355,12.0,15.0,58,0.00,,,0.00,weatherlink.com 1.10,2013-11-18 18:33:00,
2013-11-18 13:48:00,51.3,36.0,30.02,WNW,286,12.0,14.0,57,0.00,,,0.00,weatherlink.com 1.10,2013-11-18 18:48:00,
2013-11-18 14:03:00,51.0,35.0,30.04,NNW,330,8.0,24.0,54,0.00,,,0.00,weatherlink.com 1.10,2013-11-18 19:03:00,
2013-11-18 14:18:00,51.5,34.0,30.04,WNW,282,7.0,13.0,52,0.00,,,0.00,weatherlink.com 1.10,2013-11-18 19:18:00,
2013-11-18 14:33:00,50.8,34.0,30.04,NW,323,5.0,16.0,52,0.00,,,0.00,weatherlink.com 1.10,2013-11-18 19:33:00,
2013-11-18 14:48:00,50.9,34.0,30.05,North,356,3.0,13.0,52,0.00,,,0.00,weatherlink.com 1.10,2013-11-18 19:48:00,
2013-11-18 15:03:00,50.8,34.0,30.05,WNW,297,6.0,15.0,52,0.00,,,0.00,weatherlink.com 1.10,2013-11-18 20:03:00,
2013-11-18 15:18:00,50.6,32.0,30.06,West,275,7.0,14.0,50,0.00,,,0.00,weatherlink.com 1.10,2013-11-18 20:18:00,
2013-11-18 15:33:00,50.2,33.0,30.06,NW,308,5.0,17.0,53,0.00,,,0.00,weatherlink.com 1.10,2013-11-18 20:33:00,
2013-11-18 15:48:00,49.7,33.0,30.07,WSW,248,3.0,13.0,53,0.00,,,0.00,weatherlink.com 1.10,2013-11-18 20:48:00,
2013-11-18 16:03:00,49.1,32.0,30.07,NW,326,4.0,13.0,52,0.00,,,0.00,weatherlink.com 1.10,2013-11-18 21:03:00,
2013-11-18 16:18:00,48.8,33.0,30.08,NW,312,4.0,16.0,54,0.00,,,0.00,weatherlink.com 1.10,2013-11-18 21:18:00,
2013-11-18 16:33:00,48.4,33.0,30.09,WNW,291,2.0,14.0,55,0.00,,,0.00,weatherlink.com 1.10,2013-11-18 21:33:00,
2013-11-18 16:48:00,47.7,31.0,30.10,West,263,7.0,15.0,52,0.00,,,0.00,weatherlink.com 1.10,2013-11-18 21:48:00,
2013-11-18 17:03:00,47.1,31.0,30.10,WSW,248,2.0,9.0,55,0.00,,,0.00,weatherlink.com 1.10,2013-11-18 22:03:00,
2013-11-18 17:18:00,46.4,32.0,30.11,WSW,257,3.0,13.0,57,0.00,,,0.00,weatherlink.com 1.10,2013-11-18 22:18:00,
2013-11-18 17:33:00,45.8,31.0,30.12,NNW,332,1.0,11.0,57,0.00,,,0.00,weatherlink.com 1.10,2013-11-18 22:33:00,
2013-11-18 17:48:00,45.1,31.0,30.12,WSW,245,1.0,7.0,59,0.00,,,0.00,weatherlink.com 1.10,2013-11-18 22:48:00,
2013-11-18 18:04:00,44.4,31.0,30.12,NNW,344,2.0,11.0,60,0.00,,,0.00,weatherlink.com 1.10,2013-11-18 23:04:00,
2013-11-18 18:19:00,44.1,31.0,30.13,WNW,296,2.0,13.0,61,0.00,,,0.00,weatherlink.com 1.10,2013-11-18 23:19:00,
2013-11-18 18:34:00,43.6,31.0,30.14,NNW,334,0.0,7.0,62,0.00,,,0.00,weatherlink.com 1.10,2013-11-18 23:34:00,
2013-11-18 18:49:00,43.6,30.0,30.15,NNW,332,0.0,9.0,59,0.00,,,0.00,weatherlink.com 1.10,2013-11-18 23:49:00,
2013-11-18 19:04:00,43.3,27.0,30.15,WSW,254,0.0,7.0,54,0.00,,,0.00,weatherlink.com 1.10,2013-11-19 00:04:00,
2013-11-18 19:19:00,43.1,26.0,30.16,ENE,68,1.0,7.0,52,0.00,,,0.00,weatherlink.com 1.10,2013-11-19 00:19:00,
2013-11-18 19:34:00,42.7,27.0,30.16,NNE,25,1.0,8.0,55,0.00,,,0.00,weatherlink.com 1.10,2013-11-19 00:34:00,
2013-11-18 19:49:00,41.9,28.0,30.17,North,7,0.0,7.0,58,0.00,,,0.00,weatherlink.com 1.10,2013-11-19 00:49:00,
2013-11-18 20:04:00,41.6,28.0,30.17,West,267,0.0,6.0,59,0.00,,,0.00,weatherlink.com 1.10,2013-11-19 01:04:00,
2013-11-18 20:19:00,41.0,28.0,30.18,NW,313,0.0,4.0,61,0.00,,,0.00,weatherlink.com 1.10,2013-11-19 01:19:00,
2013-11-18 20:34:00,40.4,28.0,30.18,NNW,346,0.0,4.0,62,0.00,,,0.00,weatherlink.com 1.10,2013-11-19 01:34:00,
2013-11-18 20:49:00,39.8,28.0,30.18,WNW,301,0.0,3.0,64,0.00,,,0.00,weatherlink.com 1.10,2013-11-19 01:49:00,
2013-11-18 21:04:00,39.5,28.0,30.19,NW,306,0.0,11.0,64,0.00,,,0.00,weatherlink.com 1.10,2013-11-19 02:04:00,
2013-11-18 21:19:00,39.0,28.0,30.19,West,270,1.0,4.0,66,0.00,,,0.00,weatherlink.com 1.10,2013-11-19 02:19:00,
2013-11-18 21:34:00,38.4,28.0,30.20,WNW,292,0.0,2.0,67,0.00,,,0.00,weatherlink.com 1.10,2013-11-19 02:34:00,
2013-11-18 21:49:00,37.6,28.0,30.20,WNW,292,0.0,1.0,69,0.00,,,0.00,weatherlink.com 1.10,2013-11-19 02:49:00,
2013-11-18 22:04:00,36.8,28.0,30.21,NW,307,0.0,1.0,71,0.00,,,0.00,weatherlink.com 1.10,2013-11-19 03:04:00,
2013-11-18 22:19:00,36.4,29.0,30.22,West,281,0.0,1.0,73,0.00,,,0.00,weatherlink.com 1.10,2013-11-19 03:19:00,
2013-11-18 22:34:00,35.5,28.0,30.21,WSW,239,0.0,0.0,75,0.00,,,0.00,weatherlink.com 1.10,2013-11-19 03:34:00,
2013-11-18 22:49:00,35.1,28.0,30.22,WNW,282,0.0,1.0,76,0.00,,,0.00,weatherlink.com 1.10,2013-11-19 03:49:00,
2013-11-18 23:04:00,33.8,28.0,30.23,WNW,282,0.0,1.0,79,0.00,,,0.00,weatherlink.com 1.10,2013-11-19 04:04:00,
2013-11-18 23:19:00,32.6,28.0,30.23,WNW,292,0.0,1.0,82,0.00,,,0.00,weatherlink.com 1.10,2013-11-19 04:19:00,
2013-11-18 23:34:00,33.7,28.0,30.23,North,349,0.0,2.0,80,0.00,,,0.00,weatherlink.com 1.10,2013-11-19 04:34:00,
2013-11-18 23:49:00,34.6,28.0,30.23,WSW,254,0.0,2.0,78,0.00,,,0.00,weatherlink.com 1.10,2013-11-19 04:49:00,